Time;durP1;ratioP1;P1;durP2;ratioP2;P2;SDS_P1;SDS_P2;PMS_P1;PMS_P2;Temp;Humidity;BMP_temperature;BMP_pressure;BME280_temperature;BME280_humidity;BME280_pressure;Samples;Min_cycle;Max_cycle;Signal;HPM_P1;HPM_P2
2021/03/05 02:23:42;;;;;;;16.95;7.60;;;4.30;99.90;;;;;;5903725;23;20024;-91
2021/03/05 02:26:54;;;;;;;19.27;8.73;;;4.30;99.90;;;;;;4798979;29;20084;-96
2021/03/05 02:29:51;;;;;;;15.35;8.35;;;4.30;99.90;;;;;;4745349;30;20078;-96
2021/03/05 02:32:26;;;;;;;16.30;8.10;;;4.30;99.90;;;;;;4833924;29;20054;-95
2021/03/05 02:34:56;;;;;;;15.98;8.10;;;4.30;99.90;;;;;;4819879;29;20061;-93
2021/03/05 02:37:28;;;;;;;14.85;7.55;;;4.20;99.90;;;;;;4848611;29;20499;-95
2021/03/05 02:40:01;;;;;;;17.13;8.38;;;4.20;99.90;;;;;;4861960;29;20061;-93
2021/03/05 02:42:36;;;;;;;19.90;8.45;;;4.20;99.90;;;;;;4845757;29;20097;-94
2021/03/05 02:45:07;;;;;;;17.45;7.95;;;4.30;99.90;;;;;;4831974;29;20069;-95
2021/03/05 02:47:38;;;;;;;24.20;9.10;;;4.30;99.90;;;;;;4832121;29;20058;-94
2021/03/05 02:50:07;;;;;;;16.88;7.53;;;4.30;99.90;;;;;;4852047;29;20062;-95
2021/03/05 02:52:37;;;;;;;18.38;8.35;;;4.30;99.90;;;;;;4838237;29;20058;-94
2021/03/05 02:55:07;;;;;;;19.92;8.60;;;4.30;99.90;;;;;;4839412;29;20068;-95
2021/03/05 02:57:45;;;;;;;19.98;8.52;;;4.30;99.90;;;;;;4837509;29;20068;-93
2021/03/05 03:00:15;;;;;;;20.08;8.82;;;4.30;99.90;;;;;;4837078;29;20065;-94
2021/03/05 03:02:47;;;;;;;21.35;9.60;;;4.20;99.90;;;;;;4839417;29;20049;-94
2021/03/05 03:05:18;;;;;;;22.15;8.63;;;4.20;99.90;;;;;;4862694;29;20045;-93
2021/03/05 03:07:46;;;;;;;;;;;4.20;99.90;;;;;;4870029;29;20063;-95
2021/03/05 03:10:14;;;;;;;19.73;8.88;;;4.20;99.90;;;;;;4852966;29;19925;-94
2021/03/05 03:12:43;;;;;;;19.92;8.63;;;4.20;99.90;;;;;;4863519;29;20065;-94
2021/03/05 03:15:17;;;;;;;23.85;9.75;;;4.10;99.90;;;;;;4845360;29;20054;-95
2021/03/05 03:17:47;;;;;;;19.33;8.23;;;4.10;99.90;;;;;;4807082;29;20058;-95
2021/03/05 03:20:18;;;;;;;21.65;8.88;;;4.00;99.90;;;;;;4798949;29;20400;-93
2021/03/05 03:22:45;;;;;;;21.42;8.65;;;4.00;99.90;;;;;;4800217;29;20385;-95
2021/03/05 03:25:16;;;;;;;19.10;8.45;;;4.00;99.90;;;;;;4816546;29;20061;-94
2021/03/05 03:27:44;;;;;;;19.52;9.10;;;3.90;99.90;;;;;;4798418;29;20061;-93
2021/03/05 03:30:14;;;;;;;24.63;9.45;;;4.00;99.90;;;;;;4813544;29;20073;-95
2021/03/05 03:32:41;;;;;;;19.95;8.85;;;4.00;99.90;;;;;;4800901;29;20054;-94
2021/03/05 03:35:12;;;;;;;21.45;8.90;;;4.00;99.90;;;;;;4832864;29;20062;-94
2021/03/05 03:37:41;;;;;;;22.73;9.38;;;4.10;99.90;;;;;;4801300;29;20062;-95
2021/03/05 03:40:11;;;;;;;24.70;9.60;;;4.10;99.90;;;;;;4827192;29;20057;-94
2021/03/05 03:42:39;;;;;;;18.98;8.90;;;4.20;99.90;;;;;;4818726;29;20060;-95
2021/03/05 03:45:09;;;;;;;23.60;8.70;;;4.20;99.90;;;;;;4848438;29;20061;-95
2021/03/05 03:47:38;;;;;;;19.77;8.93;;;4.10;99.90;;;;;;4834340;29;20053;-96
2021/03/05 03:50:13;;;;;;;20.58;8.30;;;4.20;99.90;;;;;;4834550;29;20054;-95
2021/03/05 03:52:46;;;;;;;20.90;8.75;;;4.10;99.90;;;;;;4831590;29;20053;-95
2021/03/05 03:55:13;;;;;;;20.25;8.10;;;4.20;99.90;;;;;;4830441;29;20472;-94
2021/03/05 03:57:45;;;;;;;16.27;7.55;;;4.20;99.90;;;;;;4830399;29;20062;-94
2021/03/05 04:00:14;;;;;;;20.30;8.65;;;4.20;99.90;;;;;;4818604;29;20054;-96
2021/03/05 04:02:46;;;;;;;19.13;8.77;;;4.10;99.90;;;;;;4818108;29;20057;-94
2021/03/05 04:05:17;;;;;;;16.88;7.78;;;4.10;99.90;;;;;;4847659;29;20072;-95
2021/03/05 04:07:47;;;;;;;16.73;7.70;;;4.10;99.90;;;;;;4855023;29;20049;-95
2021/03/05 04:10:16;;;;;;;15.25;7.15;;;4.00;99.90;;;;;;4840460;29;20064;-96
2021/03/05 04:12:45;;;;;;;22.13;7.75;;;4.10;99.90;;;;;;4816068;29;20061;-93
2021/03/05 04:15:14;;;;;;;18.50;8.20;;;4.20;99.90;;;;;;4830499;29;20069;-96
2021/03/05 04:17:41;;;;;;;17.65;8.35;;;4.20;99.90;;;;;;4816057;29;20069;-95
2021/03/05 04:20:15;;;;;;;18.50;7.85;;;4.20;99.90;;;;;;4831602;29;20069;-96
2021/03/05 04:22:44;;;;;;;18.70;7.75;;;4.20;99.90;;;;;;4831548;29;20057;-95
2021/03/05 04:25:14;;;;;;;21.90;8.75;;;4.10;99.90;;;;;;4818960;29;20054;-93
2021/03/05 04:27:42;;;;;;;22.63;8.60;;;4.20;99.90;;;;;;4817537;29;20050;-95
2021/03/05 04:30:14;;;;;;;18.25;8.40;;;4.10;99.90;;;;;;4830732;29;20062;-95
2021/03/05 04:32:42;;;;;;;16.13;8.02;;;4.10;99.90;;;;;;4801067;29;20061;-93
2021/03/05 04:35:10;;;;;;;17.02;8.15;;;4.10;99.90;;;;;;4829383;29;20054;-95
2021/03/05 04:37:39;;;;;;;18.73;7.78;;;4.10;99.90;;;;;;4836509;29;20061;-94
2021/03/05 04:40:10;;;;;;;22.10;8.45;;;4.00;99.90;;;;;;4834119;29;20101;-94
2021/03/05 04:42:38;;;;;;;17.05;8.43;;;3.80;99.90;;;;;;4833958;29;20057;-95
2021/03/05 04:45:08;;;;;;;20.90;8.50;;;3.80;99.90;;;;;;4832871;29;20072;-96
2021/03/05 04:47:36;;;;;;;15.63;7.30;;;3.70;99.90;;;;;;4846940;29;20064;-95
2021/03/05 04:50:05;;;;;;;15.70;7.82;;;3.80;99.90;;;;;;4833327;29;20054;-95
2021/03/05 04:52:38;;;;;;;15.20;7.55;;;3.80;99.90;;;;;;4830271;29;20054;-95
2021/03/05 04:55:08;;;;;;;17.33;7.53;;;3.90;99.90;;;;;;4848908;29;20057;-96
2021/03/05 04:57:35;;;;;;;14.43;7.15;;;3.70;99.90;;;;;;4864102;29;20060;-94
2021/03/05 05:00:04;;;;;;;18.77;7.75;;;3.70;99.90;;;;;;4847651;29;20061;-94
2021/03/05 05:02:32;;;;;;;18.73;7.65;;;3.70;99.90;;;;;;4848752;29;20053;-95
2021/03/05 05:05:00;;;;;;;19.98;8.75;;;3.80;99.90;;;;;;4836353;29;20088;-94
2021/03/05 05:07:27;;;;;;;23.33;9.65;;;3.90;99.90;;;;;;4847258;29;20061;-95
2021/03/05 05:09:55;;;;;;;16.73;8.27;;;3.90;99.90;;;;;;4863727;29;20065;-96
2021/03/05 05:12:22;;;;;;;17.52;6.90;;;3.80;99.90;;;;;;4832518;29;20060;-95
2021/03/05 05:14:50;;;;;;;15.32;7.28;;;3.90;99.90;;;;;;4847598;29;20061;-93
2021/03/05 05:17:17;;;;;;;16.23;7.57;;;3.90;99.90;;;;;;4832070;29;20058;-96
2021/03/05 05:19:44;;;;;;;14.57;7.05;;;3.90;99.90;;;;;;4847656;29;20072;-94
2021/03/05 05:22:11;;;;;;;17.27;7.82;;;3.70;99.90;;;;;;4832815;29;20073;-94
2021/03/05 05:24:39;;;;;;;17.88;7.40;;;3.70;99.90;;;;;;4832182;29;20061;-93
2021/03/05 05:27:07;;;;;;;19.00;7.67;;;3.60;99.90;;;;;;4848144;29;20053;-95
2021/03/05 05:29:34;;;;;;;18.27;9.55;;;3.60;99.90;;;;;;4847286;29;20491;-94
2021/03/05 05:32:02;;;;;;;19.65;9.63;;;3.50;99.90;;;;;;4847370;29;20060;-94
2021/03/05 05:34:29;;;;;;;14.80;7.13;;;3.40;99.90;;;;;;4847102;29;19924;-95
2021/03/05 05:36:56;;;;;;;14.98;7.30;;;3.40;99.90;;;;;;4826682;29;20069;-95
2021/03/05 05:39:24;;;;;;;16.00;7.20;;;3.40;99.90;;;;;;4815746;29;20054;-95
2021/03/05 05:41:56;;;;;;;19.98;7.68;;;3.40;99.90;;;;;;4831088;29;20054;-96
2021/03/05 05:44:24;;;;;;;14.40;7.15;;;3.50;99.90;;;;;;4830182;29;20064;-94
2021/03/05 05:46:54;;;;;;;16.30;8.40;;;3.50;99.90;;;;;;4829923;29;20058;-95
2021/03/05 05:49:23;;;;;;;15.00;7.25;;;3.50;99.90;;;;;;4815072;29;20061;-95
2021/03/05 05:51:52;;;;;;;17.17;7.97;;;3.60;99.90;;;;;;4827737;29;20084;-93
2021/03/05 05:54:22;;;;;;;17.08;6.93;;;3.60;99.90;;;;;;4848528;29;20240;-95
2021/03/05 05:56:53;;;;;;;18.20;7.20;;;3.60;99.90;;;;;;4834552;29;20053;-94
2021/03/05 05:59:20;;;;;;;15.15;7.70;;;3.50;99.90;;;;;;4833462;29;20057;-94
2021/03/05 06:01:49;;;;;;;13.85;6.53;;;3.50;99.90;;;;;;4849609;29;20064;-96
2021/03/05 06:04:16;;;;;;;15.68;7.38;;;3.50;99.90;;;;;;4839805;29;20064;-95
2021/03/05 06:06:45;;;;;;;18.08;7.72;;;3.30;99.90;;;;;;4848137;29;20064;-95
2021/03/05 06:09:13;;;;;;;17.75;7.15;;;3.30;99.90;;;;;;4825428;29;20361;-96
2021/03/05 06:11:42;;;;;;;17.50;7.03;;;3.20;99.90;;;;;;4836140;29;20064;-95
2021/03/05 06:14:11;;;;;;;12.60;6.32;;;3.10;99.90;;;;;;4833192;29;20065;-95
2021/03/05 06:16:54;;;;;;;17.83;7.38;;;3.10;99.90;;;;;;4817028;29;20484;-96
2021/03/05 06:19:23;;;;;;;15.50;8.00;;;3.00;99.90;;;;;;4848415;29;20060;-96
2021/03/05 06:21:51;;;;;;;17.80;6.33;;;2.80;99.90;;;;;;4836068;29;20078;-95
2021/03/05 06:24:18;;;;;;;20.58;7.35;;;2.70;99.90;;;;;;4835922;29;20495;-96
2021/03/05 06:26:50;;;;;;;19.40;7.63;;;2.50;99.90;;;;;;4840095;29;20081;-96
2021/03/05 06:29:20;;;;;;;15.75;7.05;;;2.50;99.90;;;;;;4873368;29;20061;-95
2021/03/05 06:31:57;;;;;;;18.63;7.77;;;2.50;99.90;;;;;;4841238;29;20388;-96
2021/03/05 06:34:28;;;;;;;12.27;5.57;;;2.50;99.90;;;;;;4840017;29;20053;-96
2021/03/05 06:37:04;;;;;;;20.10;6.53;;;2.60;99.90;;;;;;4847698;29;20064;-96
2021/03/05 06:39:32;;;;;;;13.82;6.82;;;2.70;99.90;;;;;;4863323;29;20058;-94
2021/03/05 06:42:03;;;;;;;19.20;7.70;;;2.70;99.90;;;;;;4862341;29;20072;-96
2021/03/05 06:44:32;;;;;;;18.97;7.13;;;2.60;99.90;;;;;;4873424;29;20057;-95
2021/03/05 06:47:12;;;;;;;17.92;7.30;;;2.70;99.90;;;;;;4865155;29;20057;-95
2021/03/05 06:49:40;;;;;;;21.40;7.63;;;2.80;99.90;;;;;;4861058;29;20071;-94
2021/03/05 06:52:09;;;;;;;18.38;6.13;;;2.80;99.90;;;;;;4842642;29;20072;-96
2021/03/05 06:54:42;;;;;;;16.65;7.25;;;2.70;99.90;;;;;;4826579;29;20042;-94
2021/03/05 06:57:12;;;;;;;14.37;6.10;;;2.70;99.90;;;;;;4857431;29;20053;-95
2021/03/05 06:59:41;;;;;;;25.00;7.27;;;2.70;99.90;;;;;;4858790;29;20076;-96
2021/03/05 07:02:16;;;;;;;17.05;5.93;;;2.60;99.90;;;;;;4843691;29;20464;-95
2021/03/05 07:04:48;;;;;;;16.70;5.95;;;2.60;99.90;;;;;;4843943;29;20459;-96
2021/03/05 07:07:17;;;;;;;23.40;8.13;;;2.90;99.90;;;;;;4845386;29;20057;-95
2021/03/05 07:09:46;;;;;;;16.30;6.03;;;2.80;99.90;;;;;;4862721;29;20060;-96
2021/03/05 07:12:15;;;;;;;19.33;6.03;;;2.70;99.90;;;;;;4859927;29;20061;-96
2021/03/05 07:14:45;;;;;;;17.30;5.77;;;2.90;99.90;;;;;;4873865;29;20053;-96
2021/03/05 07:17:20;;;;;;;17.77;6.23;;;2.70;99.90;;;;;;4846783;29;20054;-96
2021/03/05 07:19:54;;;;;;;19.10;7.10;;;2.60;99.90;;;;;;4851479;29;20064;-96
2021/03/05 07:22:31;;;;;;;23.93;6.23;;;2.70;99.90;;;;;;4844822;29;20053;-95
2021/03/05 07:25:05;;;;;;;14.97;5.33;;;2.70;99.90;;;;;;4857381;29;20061;-95
2021/03/05 07:27:37;;;;;;;16.27;5.13;;;2.60;99.90;;;;;;4863330;29;20066;-95
2021/03/05 07:30:11;;;;;;;15.27;6.10;;;2.60;99.90;;;;;;4856039;29;20057;-95
2021/03/05 07:32:46;;;;;;;17.90;5.47;;;2.70;99.90;;;;;;4859874;29;20072;-94
2021/03/05 07:35:18;;;;;;;18.03;5.60;;;2.80;99.90;;;;;;4858792;29;20073;-96
2021/03/05 07:37:49;;;;;;;19.87;6.17;;;3.00;99.90;;;;;;4834190;29;20072;-94
2021/03/05 07:40:22;;;;;;;16.27;5.20;;;3.10;99.90;;;;;;4860515;29;20067;-95
2021/03/05 07:42:52;;;;;;;20.93;5.67;;;3.10;99.90;;;;;;4855796;29;20049;-96
2021/03/05 07:45:21;;;;;;;14.67;5.10;;;3.10;99.90;;;;;;4835270;29;20060;-96
2021/03/05 07:54:45;;;;;;;16.93;4.67;;;3.20;99.90;;;;;;4892916;29;20050;-95
2021/03/05 07:57:46;;;;;;;15.03;4.23;;;3.30;99.90;;;;;;4841393;29;20056;-95
2021/03/05 08:00:41;;;;;;;12.80;4.37;;;3.40;99.90;;;;;;4873935;29;20052;-96
2021/03/05 08:03:11;;;;;;;21.73;4.75;;;3.30;99.90;;;;;;4861913;29;20057;-94
2021/03/05 08:05:40;;;;;;;16.77;5.40;;;3.40;99.90;;;;;;4868358;29;20067;-96
2021/03/05 08:08:19;;;;;;;14.17;3.77;;;3.60;99.90;;;;;;4885608;29;20061;-95
2021/03/05 08:10:50;;;;;;;13.73;5.50;;;3.60;99.90;;;;;;4869779;29;20060;-96
2021/03/05 08:16:39;;;;;;;18.47;4.43;;;3.70;99.90;;;;;;4869960;29;20355;-96
2021/03/05 08:19:46;;;;;;;12.00;3.80;;;3.70;99.90;;;;;;4883580;29;20055;-95
2021/03/05 08:22:18;;;;;;;39.35;5.65;;;3.70;99.90;;;;;;4864829;29;20059;-96
2021/03/05 08:46:20;;;;;;;16.47;3.80;;;4.30;99.90;;;;;;5937225;23;20050;31
2021/03/05 08:57:45;;;;;;;14.70;3.72;;;4.40;99.90;;;;;;5298528;23;20041;-95
2021/03/05 09:00:22;;;;;;;17.10;3.80;;;4.50;99.90;;;;;;4851696;29;20053;-96
2021/03/05 09:02:50;;;;;;;20.25;4.13;;;4.50;99.90;;;;;;4861282;29;20060;-90
2021/03/05 09:05:28;;;;;;;14.52;3.20;;;4.50;99.90;;;;;;4857463;29;20041;-87
2021/03/05 09:07:58;;;;;;;14.77;4.45;;;4.50;99.90;;;;;;4838347;29;20053;-88
2021/03/05 09:10:39;;;;;;;11.63;3.33;;;4.60;99.90;;;;;;4841679;29;20053;-89
2021/03/05 09:13:08;;;;;;;23.98;4.75;;;4.80;99.90;;;;;;4840897;29;20061;-96
2021/03/05 09:15:39;;;;;;;;;;;5.00;99.90;;;;;;4829177;29;20058;-96
2021/03/05 09:18:07;;;;;;;9.55;3.25;;;5.10;98.60;;;;;;4823389;29;19935;-96
2021/03/05 09:20:40;;;;;;;8.73;2.65;;;5.10;95.40;;;;;;4840470;29;20073;-95
2021/03/05 09:23:18;;;;;;;16.67;3.30;;;5.20;93.00;;;;;;4851097;29;20054;-96
2021/03/05 09:25:50;;;;;;;11.50;3.00;;;5.10;93.40;;;;;;4846848;29;20445;-96
2021/03/05 09:28:19;;;;;;;10.15;2.70;;;5.10;93.70;;;;;;4839582;29;20064;-95
2021/03/05 09:30:51;;;;;;;10.93;2.38;;;5.10;94.00;;;;;;4864594;29;20061;-95
2021/03/05 09:33:25;;;;;;;9.38;2.75;;;5.20;92.10;;;;;;4821901;29;20073;-95
2021/03/05 09:36:00;;;;;;;9.85;2.40;;;5.30;89.30;;;;;;4838175;29;20053;-96
2021/03/05 09:38:28;;;;;;;10.50;2.97;;;5.20;89.00;;;;;;4869101;29;20065;-94
2021/03/05 09:41:08;;;;;;;7.78;2.30;;;5.40;88.40;;;;;;4824673;29;20072;-95
2021/03/05 09:43:36;;;;;;;14.68;2.60;;;5.70;84.90;;;;;;4852287;29;20050;-95
2021/03/05 09:46:17;;;;;;;13.10;2.57;;;6.20;81.60;;;;;;4856236;29;20069;-95
2021/03/05 09:48:44;;;;;;;9.80;2.63;;;6.70;78.80;;;;;;4853091;29;20062;-96
2021/03/05 09:51:12;;;;;;;9.35;1.60;;;7.20;74.20;;;;;;4847336;29;20062;-96
2021/03/05 09:53:52;;;;;;;8.02;1.80;;;7.70;68.50;;;;;;4845931;29;20054;-95
2021/03/05 09:56:21;;;;;;;14.38;2.25;;;8.20;65.60;;;;;;4852372;29;20081;-95
2021/03/05 09:58:55;;;;;;;11.00;1.60;;;8.70;61.00;;;;;;4858971;29;20510;-95
2021/03/05 10:01:23;;;;;;;7.47;1.75;;;9.10;55.00;;;;;;4841512;29;20057;-95
2021/03/05 10:03:55;;;;;;;4.47;1.60;;;9.40;53.40;;;;;;4842095;29;20415;-94
2021/03/05 10:06:23;;;;;;;8.48;2.10;;;9.60;53.10;;;;;;4841987;29;20073;-94
2021/03/05 10:09:03;;;;;;;5.80;1.80;;;9.90;52.30;;;;;;4837655;29;20049;-95
2021/03/05 10:11:35;;;;;;;13.85;2.00;;;10.40;49.60;;;;;;4836695;29;20064;-95
2021/03/05 10:14:05;;;;;;;6.57;1.83;;;10.90;48.90;;;;;;4833947;29;20053;-95
2021/03/05 10:16:33;;;;;;;8.35;1.55;;;11.20;48.30;;;;;;4836644;29;20472;-92
2021/03/05 10:19:05;;;;;;;8.55;1.95;;;11.60;47.70;;;;;;4832447;29;20061;-93
2021/03/05 10:21:35;;;;;;;19.00;3.70;;;12.00;46.30;;;;;;4834664;29;20460;-92
2021/03/05 10:24:07;;;;;;;10.32;3.15;;;12.50;46.10;;;;;;4818853;29;20053;-92
2021/03/05 10:26:35;;;;;;;5.60;1.70;;;13.00;44.60;;;;;;4837683;29;20061;-90
2021/03/05 10:29:05;;;;;;;5.95;1.77;;;13.30;43.80;;;;;;4832853;29;20061;-92
2021/03/05 10:31:47;;;;;;;9.35;2.10;;;14.00;42.80;;;;;;4818972;29;20058;-90
2021/03/05 10:34:26;;;;;;;27.25;2.67;;;14.70;41.40;;;;;;4820397;29;20058;-90
2021/03/05 10:36:55;;;;;;;11.20;1.92;;;14.70;38.60;;;;;;4834703;29;20065;-89
2021/03/05 10:39:25;;;;;;;9.05;1.60;;;13.50;39.10;;;;;;4849723;29;20058;-91
2021/03/05 10:41:59;;;;;;;7.53;1.98;;;13.00;40.80;;;;;;4837172;29;20065;-92
2021/03/05 10:44:28;;;;;;;10.65;2.22;;;13.50;41.60;;;;;;4822382;29;20057;-90
2021/03/05 10:46:58;;;;;;;4.70;1.77;;;14.50;40.20;;;;;;4818987;29;20049;-87
2021/03/05 10:49:26;;;;;;;13.27;2.70;;;15.50;39.10;;;;;;4860163;29;20399;-90
2021/03/05 10:56:06;;;;;;;4.38;1.65;;;16.30;35.90;;;;;;4849147;29;20046;-91
2021/03/05 10:58:36;;;;;;;4.75;2.00;;;14.30;36.70;;;;;;4844800;29;20049;-90
2021/03/05 11:01:05;;;;;;;6.97;1.90;;;13.80;39.60;;;;;;4855262;29;20065;-91
2021/03/05 11:03:32;;;;;;;8.52;1.83;;;14.80;38.80;;;;;;4854405;29;20069;-90
2021/03/05 11:06:00;;;;;;;12.93;2.10;;;16.40;35.70;;;;;;4840358;29;20053;-92
2021/03/05 11:08:49;;;;;;;3.45;1.40;;;17.80;34.90;;;;;;4835575;29;20057;-92
2021/03/05 11:11:19;;;;;;;4.47;1.70;;;19.10;32.40;;;;;;4847069;29;20058;-93
2021/03/05 11:13:49;;;;;;;5.40;2.08;;;18.50;31.70;;;;;;4853095;29;20053;-91
2021/03/05 11:16:17;;;;;;;4.27;1.43;;;17.60;31.50;;;;;;4854870;29;20053;-92
2021/03/05 11:18:48;;;;;;;7.55;1.27;;;16.00;32.60;;;;;;4837084;29;20069;-92
2021/03/05 11:21:16;;;;;;;5.10;1.30;;;13.80;35.00;;;;;;4846430;29;20073;-94
2021/03/05 11:23:43;;;;;;;10.93;1.70;;;12.50;37.80;;;;;;4849983;29;20070;-92
2021/03/05 11:26:36;;;;;;;7.07;1.27;;;11.80;39.90;;;;;;4855793;29;20384;-93
2021/03/05 11:29:05;;;;;;;6.22;1.02;;;13.50;39.00;;;;;;4850593;29;20057;-90
2021/03/05 11:31:33;;;;;;;3.58;1.40;;;14.40;34.70;;;;;;4842961;29;20062;-90
2021/03/05 11:34:02;;;;;;;5.55;1.55;;;13.60;34.40;;;;;;4841411;29;20084;-91
2021/03/05 11:36:37;;;;;;;3.72;1.30;;;12.60;35.70;;;;;;4833627;29;20065;-90
2021/03/05 11:39:08;;;;;;;4.30;1.15;;;12.50;36.30;;;;;;4830660;29;20072;-90
2021/03/05 11:41:35;;;;;;;2.08;1.02;;;12.50;36.70;;;;;;4822963;29;20058;-92
2021/03/05 11:44:04;;;;;;;;;;;13.40;36.80;;;;;;4829271;29;20141;-89
2021/03/05 11:46:33;;;;;;;4.40;1.40;;;15.30;34.20;;;;;;4823659;29;19935;-89
2021/03/05 11:49:01;;;;;;;6.28;2.30;;;17.00;32.10;;;;;;4832893;29;20066;-88
2021/03/05 11:51:38;;;;;;;18.85;2.47;;;18.50;30.40;;;;;;4858219;29;20058;-93
2021/03/05 11:54:06;;;;;;;3.20;1.23;;;20.30;28.70;;;;;;4866356;29;20056;-92
2021/03/05 11:56:33;;;;;;;6.32;2.30;;;20.40;28.30;;;;;;4848587;29;20058;-91
2021/03/05 11:59:01;;;;;;;9.00;1.63;;;20.00;28.90;;;;;;4851630;29;20049;-93
2021/03/05 12:01:31;;;;;;;6.15;1.30;;;19.10;28.80;;;;;;4863842;29;20054;-94
2021/03/05 12:04:00;;;;;;;4.55;1.40;;;17.50;29.30;;;;;;4830718;29;20066;-93
2021/03/05 12:06:28;;;;;;;5.65;1.40;;;15.80;30.80;;;;;;4814615;29;20064;-95
2021/03/05 12:08:58;;;;;;;5.28;1.48;;;13.90;32.60;;;;;;4847752;29;20066;-95
2021/03/05 12:11:26;;;;;;;3.53;1.02;;;12.70;34.70;;;;;;4850444;29;20067;-95
2021/03/05 12:13:54;;;;;;;3.35;1.35;;;13.60;35.30;;;;;;4862198;29;20069;-93
2021/03/05 12:16:22;;;;;;;3.35;1.30;;;15.80;32.40;;;;;;4858045;29;20404;-93
2021/03/05 12:18:50;;;;;;;8.05;1.40;;;17.20;30.40;;;;;;4862789;29;20061;-92
2021/03/05 12:21:20;;;;;;;13.02;1.92;;;17.20;30.20;;;;;;4865387;29;20120;-91
2021/03/05 12:23:48;;;;;;;2.88;1.20;;;15.80;31.00;;;;;;4863997;29;20053;-96
2021/03/05 12:26:33;;;;;;;5.82;1.85;;;14.50;33.30;;;;;;4870065;29;20065;-95
2021/03/05 12:29:07;;;;;;;;;;;12.80;35.90;;;;;;4852368;29;20072;-94
2021/03/05 12:31:39;;;;;;;3.67;1.38;;;11.40;37.40;;;;;;4844370;29;19924;-96
2021/03/05 12:34:06;;;;;;;5.63;1.48;;;10.20;39.20;;;;;;4862507;29;20049;-96
2021/03/05 12:36:38;;;;;;;3.50;1.20;;;9.40;40.70;;;;;;4848537;29;20068;-96
2021/03/05 12:39:08;;;;;;;2.97;1.33;;;10.90;40.50;;;;;;4870624;29;20054;-96
2021/03/05 12:41:36;;;;;;;7.15;2.40;;;13.30;37.30;;;;;;4838070;29;20048;-94
2021/03/05 12:44:06;;;;;;;4.13;1.58;;;15.70;33.70;;;;;;4834884;29;20064;-92
2021/03/05 12:50:10;;;;;;;5.90;2.35;;;19.80;30.60;;;;;;4824705;29;20472;-93
2021/03/05 12:52:39;;;;;;;4.25;2.00;;;19.10;30.10;;;;;;4840431;29;20057;-95
2021/03/05 12:55:08;;;;;;;5.38;2.30;;;17.00;32.10;;;;;;4828336;29;20050;-94
2021/03/05 12:57:35;;;;;;;5.22;2.75;;;15.30;34.70;;;;;;4831540;29;20050;-95
2021/03/05 13:00:05;;;;;;;6.30;1.70;;;14.10;37.20;;;;;;4856934;29;20072;-95
2021/03/05 13:02:37;;;;;;;9.10;2.17;;;12.70;38.50;;;;;;4882335;29;20061;-96
2021/03/05 13:05:06;;;;;;;13.13;2.97;;;11.40;40.00;;;;;;4867575;29;20057;-95
2021/03/05 13:07:34;;;;;;;;;;;10.90;41.40;;;;;;4867383;29;20037;-95
2021/03/05 13:10:05;;;;;;;5.97;1.70;;;10.10;42.40;;;;;;4841697;29;20213;-96
2021/03/05 13:12:36;;;;;;;6.55;2.10;;;9.90;43.70;;;;;;4844148;29;20061;-93
2021/03/05 13:15:04;;;;;;;7.13;2.60;;;10.50;43.00;;;;;;4845666;29;20053;-94
2021/03/05 13:17:34;;;;;;;7.68;2.38;;;12.00;42.40;;;;;;4850555;29;20063;-93
2021/03/05 13:20:02;;;;;;;3.45;1.63;;;14.20;38.50;;;;;;4864378;29;20075;-91
2021/03/05 13:22:32;;;;;;;9.88;2.45;;;16.80;33.80;;;;;;4864211;29;20049;-92
2021/03/05 13:25:00;;;;;;;4.90;1.58;;;19.20;30.80;;;;;;4858928;29;20127;-91
2021/03/05 13:27:30;;;;;;;5.30;1.90;;;19.40;29.50;;;;;;4827675;29;20068;-93
2021/03/05 13:30:04;;;;;;;5.25;1.77;;;18.20;29.90;;;;;;4828391;29;20060;-92
2021/03/05 13:32:32;;;;;;;11.95;2.03;;;16.00;31.30;;;;;;4843424;29;20061;-88
2021/03/05 13:35:02;;;;;;;4.28;1.65;;;14.10;33.90;;;;;;4857668;29;20064;-93
2021/03/05 13:37:31;;;;;;;3.55;1.50;;;12.40;36.10;;;;;;4842881;29;20061;-95
2021/03/05 13:39:58;;;;;;;6.85;1.50;;;11.10;38.10;;;;;;4857241;29;20057;-95
2021/03/05 13:42:31;;;;;;;3.95;1.45;;;11.10;39.30;;;;;;4841881;29;20057;-93
2021/03/05 13:45:01;;;;;;;2.92;1.33;;;13.30;36.90;;;;;;4842022;29;20139;-91
2021/03/05 13:47:29;;;;;;;6.25;1.45;;;15.60;33.10;;;;;;4858971;29;20054;-91
2021/03/05 13:49:56;;;;;;;4.57;1.40;;;17.50;31.40;;;;;;4844846;29;20065;-91
2021/03/05 13:52:24;;;;;;;4.90;1.90;;;19.50;29.40;;;;;;4842830;29;20380;-91
2021/03/05 13:54:52;;;;;;;6.07;2.70;;;20.70;28.00;;;;;;4831021;29;20065;-92
2021/03/05 13:57:20;;;;;;;15.63;1.73;;;21.80;27.60;;;;;;4847533;29;20484;-92
2021/03/05 13:59:50;;;;;;;3.63;1.60;;;21.50;26.50;;;;;;4837381;29;20106;-92
2021/03/05 14:02:18;;;;;;;2.90;1.30;;;19.00;27.50;;;;;;4841184;29;20083;-92
2021/03/05 14:04:47;;;;;;;2.80;1.48;;;17.30;29.40;;;;;;4838163;29;20053;-90
2021/03/05 14:07:14;;;;;;;6.57;2.38;;;17.60;29.50;;;;;;4868183;29;20097;-91
2021/03/05 14:09:44;;;;;;;5.97;1.73;;;18.50;29.10;;;;;;4869185;29;20061;-90
2021/03/05 14:12:12;;;;;;;4.40;1.35;;;19.90;27.40;;;;;;4824308;29;20061;-91
2021/03/05 14:15:10;;;;;;;2.85;1.33;;;20.40;26.20;;;;;;5126189;27;20389;-92
2021/03/05 14:17:38;;;;;;;5.63;1.50;;;21.00;26.30;;;;;;5146457;28;20393;-95
2021/03/05 14:20:07;;;;;;;6.20;1.95;;;21.80;25.70;;;;;;5104873;28;20055;-93
2021/03/05 14:22:40;;;;;;;6.85;2.03;;;22.30;25.30;;;;;;5104843;28;20062;-92
2021/03/05 14:25:09;;;;;;;6.38;1.48;;;22.50;24.90;;;;;;5129432;28;20507;-94
2021/03/05 14:27:37;;;;;;;5.30;1.67;;;21.20;25.60;;;;;;5146408;28;20044;-94
2021/03/05 14:30:10;;;;;;;7.80;1.80;;;19.30;26.60;;;;;;5095143;28;20066;-93
2021/03/05 14:32:37;;;;;;;15.40;1.90;;;17.60;27.80;;;;;;5110400;28;20540;-92
2021/03/05 14:35:06;;;;;;;4.53;1.63;;;16.70;29.00;;;;;;5102915;28;20039;-93
2021/03/05 14:37:34;;;;;;;4.25;1.70;;;17.10;28.90;;;;;;5103650;28;20067;-93
2021/03/05 14:40:01;;;;;;;4.53;1.60;;;17.70;28.10;;;;;;5103038;28;20047;-91
2021/03/05 14:42:29;;;;;;;8.30;1.73;;;16.90;28.30;;;;;;5101116;28;20052;-91
2021/03/05 14:44:56;;;;;;;4.88;1.50;;;16.00;29.20;;;;;;5107755;28;20343;-92
2021/03/05 14:47:24;;;;;;;5.20;1.70;;;17.00;28.80;;;;;;5105638;28;20062;-92
2021/03/05 14:49:52;;;;;;;5.15;1.80;;;17.80;28.10;;;;;;5128460;28;20052;-90
2021/03/05 14:52:19;;;;;;;9.57;2.00;;;19.30;27.20;;;;;;5111443;28;20043;-93
2021/03/05 14:54:47;;;;;;;4.63;1.45;;;20.70;26.30;;;;;;5132718;28;20058;-90
2021/03/05 14:57:28;;;;;;;4.75;1.85;;;21.40;25.80;;;;;;5119349;28;20061;-91
2021/03/05 14:59:55;;;;;;;5.03;1.40;;;21.00;25.40;;;;;;5139779;28;20062;-93
2021/03/05 15:02:25;;;;;;;11.38;2.20;;;19.10;26.70;;;;;;5150398;28;20036;-91
2021/03/05 15:04:52;;;;;;;4.18;1.50;;;16.90;28.50;;;;;;5150138;28;20047;-94
2021/03/05 15:07:20;;;;;;;11.75;2.72;;;15.00;31.20;;;;;;5127089;28;20056;-95
2021/03/05 15:09:51;;;;;;;4.53;1.70;;;14.30;32.90;;;;;;5128231;28;20058;-93
2021/03/05 15:12:18;;;;;;;3.47;1.50;;;14.30;33.50;;;;;;5106158;28;20067;-92
2021/03/05 15:14:48;;;;;;;4.22;2.00;;;15.30;31.90;;;;;;5099169;28;20051;-93
2021/03/05 15:17:16;;;;;;;3.97;1.55;;;16.70;30.30;;;;;;5127837;28;20062;-93
2021/03/05 15:19:47;;;;;;;6.40;1.52;;;18.00;29.20;;;;;;5122685;28;20051;-93
2021/03/05 15:22:31;;;;;;;6.70;1.73;;;18.10;28.30;;;;;;5121577;28;20047;-93
2021/03/05 15:24:58;;;;;;;4.45;1.70;;;17.20;29.00;;;;;;5097590;28;20047;-94
2021/03/05 15:27:29;;;;;;;5.53;1.75;;;15.90;30.00;;;;;;5088012;28;20048;-94
2021/03/05 15:29:56;;;;;;;3.28;1.65;;;14.60;31.90;;;;;;5104136;28;20055;-93
2021/03/05 15:32:24;;;;;;;8.60;1.75;;;13.60;33.30;;;;;;5083183;28;20055;-93
2021/03/05 15:34:54;;;;;;;4.82;1.70;;;12.60;34.80;;;;;;5066498;28;20048;-92
2021/03/05 15:37:22;;;;;;;4.50;1.50;;;12.00;36.20;;;;;;5068829;28;20064;-93
2021/03/05 15:39:49;;;;;;;7.32;1.42;;;11.40;37.30;;;;;;5065330;28;20049;-94
2021/03/05 15:42:17;;;;;;;3.67;1.55;;;10.90;38.20;;;;;;5068553;28;20052;-95
2021/03/05 15:44:44;;;;;;;11.95;5.80;;;10.40;39.00;;;;;;5083995;28;20048;-96
2021/03/05 15:47:12;;;;;;;8.45;1.60;;;10.00;40.10;;;;;;5109163;28;20066;-96
2021/03/05 15:49:43;;;;;;;4.63;1.27;;;9.80;41.40;;;;;;5092968;28;20485;-96
2021/03/05 15:52:12;;;;;;;3.40;1.30;;;9.40;42.00;;;;;;5102076;28;20048;-95
2021/03/05 15:54:40;;;;;;;6.68;1.70;;;9.00;42.60;;;;;;5086702;28;20040;-95
2021/03/05 15:57:08;;;;;;;6.38;1.40;;;8.80;43.10;;;;;;5088108;28;20483;-96
2021/03/05 15:59:35;;;;;;;3.13;1.23;;;8.60;43.10;;;;;;5085060;28;20048;-96
2021/03/05 16:02:03;;;;;;;7.93;1.55;;;8.50;42.70;;;;;;5111991;28;20048;-96
2021/03/05 16:04:32;;;;;;;3.05;1.10;;;8.40;43.00;;;;;;5109979;28;20048;-96
2021/03/05 16:06:59;;;;;;;;;;;8.40;42.40;;;;;;5094020;28;20052;-96
2021/03/05 16:09:27;;;;;;;2.05;0.85;;;8.40;41.80;;;;;;5084601;28;19920;-96
2021/03/05 16:11:55;;;;;;;4.72;1.15;;;8.30;42.10;;;;;;5085554;28;20051;-96
2021/03/05 16:14:23;;;;;;;2.13;0.80;;;8.20;42.70;;;;;;5086845;28;20044;-96
2021/03/05 16:16:50;;;;;;;2.87;1.10;;;8.10;43.90;;;;;;5105279;28;20059;-96